Flight Track Log - Related Links

Times and Time Zones

All times are in EDT time to prevent confusion due to time zone crossing. See the N343CW flight status page for this flight to view local times or setup timezone preferences in your user account.

Time Position Orientation Groundspeed Altitude Reporting Facility
EDT Latitude Longitude Course Direction KTS MPH feet Rate Location/Type
Tue 13:25:00 40.1911 -83.2828 172° South 131 151 3,100  Level Indianapolis Center
Tue 13:25:31 40.1683 -83.2786 172° South 152 175 3,800 1,290 Climbing Indianapolis Center
Tue 13:26:33 40.1253 -83.2672 169° South 155 178 5,100 1,368 Climbing Indianapolis Center
Tue 13:27:25 40.0864 -83.2572 169° South 157 181 6,400 1,317 Climbing Indianapolis Center
Tue 13:28:36 40.0414 -83.2522 175° South 151 174 7,800 1,263 Climbing Indianapolis Center
Tue 13:29:38 39.9969 -83.2481 176° South 156 180 9,200 1,306 Climbing Indianapolis Center
Tue 13:30:40 39.9508 -83.2425 175° South 164 189 10,500 1,220 Climbing Indianapolis Center
Tue 13:31:41 39.9033 -83.2367 175° South 169 194 11,700 1,171 Climbing Indianapolis Center
Tue 13:32:43 39.8531 -83.2317 176° South 177 204 12,900 1,065 Climbing Indianapolis Center
Tue 13:33:45 39.8003 -83.2261 175° South 188 216 13,900 1,073 Climbing Indianapolis Center
Tue 13:34:46 39.7467 -83.2211 176° South 191 220 15,100 1,317 Climbing Indianapolis Center
Tue 13:35:48 39.6844 -83.2139 175° South 185 213 16,600 1,161 Climbing Indianapolis Center
Tue 13:36:50 39.6339 -83.2086 175° South 183 211 17,500 774 Climbing Indianapolis Center
Tue 13:37:52 39.5792 -83.2028 175° South 194 223 18,200 732 Climbing Indianapolis Center
Tue 13:38:53 39.5239 -83.1967 175° South 198 228 19,000 683 Climbing Indianapolis Center
Tue 13:39:55 39.4692 -83.1908 175° South 198 228 19,600 387 Climbing Indianapolis Center
Tue 13:40:57 39.4103 -83.1847 175° South 207 238 19,800 290 Climbing Indianapolis Center
Tue 13:41:59 39.3469 -83.1781 175° South 221 254 20,200 488 Climbing Indianapolis Center
Tue 13:43:00 39.2867 -83.1725 176° South 220 253 20,800 537 Climbing Indianapolis Center
Tue 13:44:02 39.2175 -83.1647 175° South 211 243 21,300 387 Climbing Indianapolis Center
Tue 13:45:04 39.1653 -83.1586 175° South 218 251 21,600 435 Climbing Indianapolis Center
Tue 13:46:06 39.0906 -83.1497 175° South 223 257 22,200 537 Climbing Indianapolis Center
Tue 13:47:07 39.0311 -83.1433 175° South 218 251 22,700 488 Climbing Indianapolis Center
Tue 13:48:09 38.9722 -83.1378 176° South 213 245 23,200 484 Climbing Indianapolis Center
Tue 13:49:11 38.9125 -83.1311 175° South 214 246 23,700 390 Climbing Indianapolis Center
Tue 13:50:12 38.8536 -83.1247 175° South 214 246 24,000 146 Climbing Indianapolis Center
Tue 13:51:14 38.7897 -83.1186 176° South 229 264 24,000  Level Indianapolis Center
Tue 13:52:16 38.7211 -83.1114 175° South 244 281 24,000  Level Indianapolis Center
Tue 13:53:18 38.6408 -83.1031 175° South 252 290 24,000  Level Indianapolis Center
Tue 13:54:20 38.5678 -83.0956 175° South 261 300 24,000  Level Indianapolis Center
Tue 13:55:21 38.4953 -83.0883 176° South 261 300 24,000  Level Indianapolis Center
Tue 13:56:23 38.4217 -83.0803 175° South 265 305 24,000  Level Indianapolis Center
Tue 13:57:25 38.3344 -83.0722 176° South 267 307 24,000  Level Indianapolis Center
Tue 13:58:27 38.2597 -83.0628 174° South 270 311 24,000  Level Indianapolis Center
Tue 13:59:28 38.1844 -83.0567 176° South 270 311 24,000 146 Level Indianapolis Center
Tue 14:00:30 38.1092 -83.0472 174° South 271 312 24,300 532 Climbing Indianapolis Center
Tue 14:01:32 38.0428 -83.0408 176° South 248 285 25,100 581 Climbing Indianapolis Center
Tue 14:02:34 37.9789 -83.0358 176° South 233 268 25,500 439 Climbing Indianapolis Center
Tue 14:03:35 37.9083 -83.0275 175° South 220 253 26,000 244 Climbing Indianapolis Center
Tue 14:04:37 37.8442 -83.0217 176° South 226 260 26,000  Level Indianapolis Center
Tue 14:05:39 37.7750 -83.0144 175° South 245 282 26,000  Level Indianapolis Center
Tue 14:06:40 37.7042 -83.0064 175° South 252 290 26,000  Level Indianapolis Center
Tue 14:07:42 37.6325 -83.0003 176° South 257 296 26,000  Level Indianapolis Center
Tue 14:08:44 37.5603 -82.9933 176° South 259 298 26,000  Level Indianapolis Center
Tue 14:09:45 37.4883 -82.9861 175° South 259 298 26,000  Level Indianapolis Center
Tue 14:10:47 37.4036 -82.9772 175° South 260 299 26,000  Level Indianapolis Center
Tue 14:11:49 37.3300 -82.9703 176° South 262 302 26,000  Level Indianapolis Center
Tue 14:12:50 37.2561 -82.9628 175° South 265 305 26,000  Level Indianapolis Center
Tue 14:13:52 37.1817 -82.9550 175° South 267 307 26,000  Level Indianapolis Center
Tue 14:14:54 37.1078 -82.9481 176° South 266 306 26,000  Level Indianapolis Center
Tue 14:15:56 37.0331 -82.9408 176° South 267 307 26,000  Level Indianapolis Center
Tue 14:16:57 36.9486 -82.9381 178° South 268 308 26,000  Level Indianapolis Center
Tue 14:19:01 36.7975 -82.9175 174° South 276 318 26,000  Level Indianapolis Center
Tue 14:20:02 36.7247 -82.9094 175° South 267 307 26,000  Level Indianapolis Center
Tue 14:21:04 36.6378 -82.9008 175° South 267 307 26,000  Level Indianapolis Center
Tue 14:22:06 36.5639 -82.8936 176° South 266 306 26,000  Level Indianapolis Center
Tue 14:23:07 36.4911 -82.8858 175° South 264 304 26,000  Level Indianapolis Center
Tue 14:24:09 36.4175 -82.8792 176° South 264 304 26,000  Level Indianapolis Center
Tue 14:25:09 36.3386 -82.8736 177° South 274 315 26,000  Level Atlanta Center
Tue 14:26:09 36.2656 -82.8669 176° South 274 315 26,000  Level Atlanta Center
Tue 14:27:09 36.1944 -82.8578 174° South 269 310 26,000  Level Atlanta Center
Tue 14:28:09 36.1172 -82.8511 176° South 274 315 26,000  Level Atlanta Center
Tue 14:29:09 36.0442 -82.8444 176° South 269 310 26,000  Level Atlanta Center
Tue 14:30:09 35.9689 -82.8381 176° South 274 315 26,000  Level Atlanta Center
Tue 14:31:09 35.8939 -82.8289 174° South 274 315 26,000  Level Atlanta Center
Tue 14:32:09 35.8208 -82.8222 176° South 274 315 26,000  Level Atlanta Center
Tue 14:33:09 35.7456 -82.8131 174° South 274 315 26,000 -50 Level Atlanta Center
Tue 14:34:09 35.6703 -82.8067 176° South 274 315 25,900  Descending Atlanta Center
Tue 14:35:09 35.5931 -82.8003 176° South 274 315 26,000 50 Climbing Atlanta Center
Tue 14:36:09 35.5181 -82.7936 176° South 274 315 26,000  Level Atlanta Center
Tue 14:37:09 35.4408 -82.7922 179° South 274 315 26,000  Level Atlanta Center
Tue 14:38:09 35.3675 -82.7806 173° South 274 315 26,000  Level Atlanta Center
Tue 14:39:09 35.2922 -82.7689 173° South 274 315 26,000  Level Atlanta Center
Tue 14:40:09 35.2172 -82.7625 176° South 274 315 26,000  Level Atlanta Center
Tue 14:41:09 35.1400 -82.7611 179° South 274 315 26,000  Level Atlanta Center
Tue 14:42:09 35.0667 -82.7497 173° South 274 315 26,000  Level Atlanta Center
Tue 14:43:09 34.9958 -82.7406 174° South 274 315 26,000  Level Atlanta Center
Tue 14:44:09 34.9269 -82.7392 179° South 274 315 26,000  Level Atlanta Center
Tue 14:45:09 34.8536 -82.7303 174° South 274 315 26,000  Level Atlanta Center
Tue 14:46:09 34.7806 -82.7236 176° South 274 315 26,000  Level Atlanta Center
Tue 14:47:09 34.7056 -82.7197 178° South 274 315 26,000 -50 Level Atlanta Center
Tue 14:48:09 34.6303 -82.7083 173° South 279 321 25,900  Descending Atlanta Center
Tue 14:49:09 34.5633 -82.7044 177° South 264 304 26,000  Climbing Atlanta Center
Tue 14:50:09 34.4881 -82.6956 174° South 264 304 25,900  Descending Atlanta Center
Tue 14:51:09 34.4108 -82.6892 176° South 259 298 26,000 50 Climbing Atlanta Center
Tue 14:52:09 34.3378 -82.6828 176° South 254 292 26,000  Level Atlanta Center
Tue 14:53:09 34.2689 -82.6764 176° South 261 300 26,000  Level Atlanta Center
Tue 14:54:09 34.1978 -82.6700 176° South 254 292 26,000  Level Atlanta Center
Tue 14:55:09 34.1247 -82.6636 176° South 259 298 26,000  Level Atlanta Center
Tue 14:56:09 34.0536 -82.6547 174° South 259 298 26,000  Level Atlanta Center
Tue 14:57:09 33.9825 -82.6483 176° South 259 298 26,000  Level Atlanta Center
Tue 14:58:09 33.9094 -82.6422 176° South 259 298 26,000  Level Atlanta Center
Tue 14:59:09 33.8467 -82.6356 175° South 259 298 26,000  Level Atlanta Center
Tue 15:00:09 33.7758 -82.6317 177° South 259 298 26,000  Level Atlanta Center
Tue 15:01:09 33.7047 -82.6256 176° South 259 298 26,000  Level Atlanta Center
Tue 15:02:09 33.6336 -82.6192 176° South 259 298 26,000  Level Atlanta Center
Tue 15:03:09 33.5625 -82.6128 176° South 253 291 26,000  Level Atlanta Center
Tue 15:04:09 33.4894 -82.6067 176° South 259 298 26,000  Level Atlanta Center
Tue 15:05:09 33.4122 -82.5981 175° South 259 298 26,000  Level Atlanta Center
Tue 15:06:09 33.3411 -82.5917 176° South 252 290 26,000  Level Atlanta Center
Tue 15:07:09 33.2764 -82.5853 175° South 262 302 26,000  Level Atlanta Center
Tue 15:08:09 33.2053 -82.5814 177° South 257 296 26,000  Level Atlanta Center
Tue 15:09:09 33.1342 -82.5703 173° South 257 296 26,000  Level Atlanta Center
Tue 15:10:09 33.0631 -82.5642 176° South 257 296 26,000  Level Atlanta Center
Tue 15:11:09 32.9922 -82.5578 176° South 257 296 26,000  Level Atlanta Center
Tue 15:12:09 32.9231 -82.5514 176° South 257 296 26,000  Level Atlanta Center
Tue 15:13:09 32.8522 -82.5453 176° South 257 296 26,000  Level Atlanta Center
Tue 15:14:09 32.7831 -82.5392 176° South 257 296 26,000  Level Atlanta Center
Tue 15:15:09 32.7142 -82.5303 174° South 257 296 26,000  Level Atlanta Center
Tue 15:16:09 32.6431 -82.5267 178° South 257 296 26,000  Level Atlanta Center
Tue 15:17:09 32.5722 -82.5206 176° South 257 296 26,000  Level Atlanta Center
Tue 15:18:09 32.5031 -82.5144 176° South 257 296 26,000  Level Atlanta Center
Tue 15:19:09 32.4322 -82.5106 177° South 257 296 26,000  Level Atlanta Center
Tue 15:20:41 32.3267 -82.4967 174° South 243 280 26,000  Level Jacksonville Center
Tue 15:21:41 32.2619 -82.4922 177° South 243 280 26,000  Level Jacksonville Center
Tue 15:22:41 32.1908 -82.4850 175° South 243 280 26,000  Level Jacksonville Center
Tue 15:23:41 32.1219 -82.4806 177° South 248 285 26,000  Level Jacksonville Center
Tue 15:24:41 32.0572 -82.4733 175° South 253 291 26,000  Level Jacksonville Center
Tue 15:25:41 31.9842 -82.4664 175° South 253 291 26,000  Level Jacksonville Center
Tue 15:26:41 31.9153 -82.4617 177° South 253 291 26,000  Level Jacksonville Center
Tue 15:27:41 31.8483 -82.4572 177° South 253 291 26,000  Level Jacksonville Center
Tue 15:28:41 31.7733 -82.4453 172° South 253 291 26,000  Level Jacksonville Center
Tue 15:29:41 31.7064 -82.4286 168° South 253 291 26,000  Level Jacksonville Center
Tue 15:30:41 31.6394 -82.4167 171° South 253 291 26,000  Level Jacksonville Center
Tue 15:31:41 31.5725 -82.4025 170° South 253 291 26,000  Level Jacksonville Center
Tue 15:32:41 31.5058 -82.3833 166° South 253 291 26,000  Level Jacksonville Center
Tue 15:33:41 31.4533 -82.3372 143° Southeast 243 280 26,000  Level Jacksonville Center
Tue 15:34:41 31.3925 -82.2964 150° Southeast 243 280 26,000  Level Jacksonville Center
Tue 15:35:41 31.3381 -82.2528 146° Southeast 243 280 26,000  Level Jacksonville Center
Tue 15:36:41 31.2733 -82.2289 162° South 238 274 26,000  Level Jacksonville Center
Tue 15:37:41 31.2044 -82.2294 180° South 239 275 26,000  Level Jacksonville Center
Tue 15:38:41 31.1333 -82.2250 177° South 244 281 26,000  Level Jacksonville Center
Tue 15:39:41 31.0622 -82.2208 177° South 254 292 26,000  Level Jacksonville Center
Tue 15:40:41 30.9956 -82.2117 173° South 254 292 26,000  Level Jacksonville Center
Tue 15:41:41 30.9244 -82.2047 175° South 254 292 26,000  Level Jacksonville Center
Tue 15:42:41 30.8533 -82.1956 174° South 254 292 26,000  Level Jacksonville Center
Tue 15:43:41 30.7825 -82.1914 177° South 254 292 26,000  Level Jacksonville Center
Tue 15:44:41 30.7133 -82.1869 177° South 254 292 26,000  Level Jacksonville Center
Tue 15:45:41 30.6425 -82.1778 174° South 254 292 26,000  Level Jacksonville Center
Tue 15:46:41 30.5714 -82.1711 175° South 254 292 26,000  Level Jacksonville Center
Tue 15:47:41 30.4983 -82.1597 172° South 254 292 26,000  Level Jacksonville Center
Tue 15:48:41 30.4294 -82.1531 175° South 254 292 26,000  Level Jacksonville Center
Tue 15:49:41 30.3583 -82.1464 175° South 254 292 26,000  Level Jacksonville Center
Tue 15:50:41 30.2872 -82.1397 175° South 259 298 26,000  Level Jacksonville Center
Tue 15:51:41 30.2161 -82.1331 175° South 254 292 26,000  Level Jacksonville Center
Tue 15:52:41 30.1453 -82.1214 172° South 259 298 26,000  Level Jacksonville Center
Tue 15:53:41 30.0783 -82.1078 170° South 254 292 26,000  Level Jacksonville Center
Tue 15:54:41 30.0136 -82.1011 175° South 259 298 26,000  Level Jacksonville Center
Tue 15:55:41 29.9444 -82.0847 168° South 259 298 26,000  Level Jacksonville Center
Tue 15:56:41 29.8756 -82.0733 172° South 259 298 26,000  Level Jacksonville Center
Tue 15:57:41 29.8086 -82.0597 170° South 259 298 26,000  Level Jacksonville Center
Tue 15:58:41 29.7314 -82.0386 167° South 259 298 26,000  Level Jacksonville Center
Tue 15:59:41 29.6644 -82.0250 170° South 259 298 26,000  Level Jacksonville Center
Tue 16:00:41 29.5975 -82.0183 175° South 259 298 26,000  Level Jacksonville Center
Tue 16:01:41 29.5286 -82.0047 170° South 259 298 26,000 -450 Level Jacksonville Center
Tue 16:02:41 29.4553 -81.9886 169° South 259 298 25,100 -500 Descending Jacksonville Center
Tue 16:03:41 29.3800 -81.9750 171° South 264 304 25,000 -50 Descending Jacksonville Center
Tue 16:04:41 29.3069 -81.9614 171° South 269 310 25,000  Level Jacksonville Center
Tue 16:05:41 29.2358 -81.9456 169° South 269 310 25,000  Level Jacksonville Center
Tue 16:06:41 29.1544 -81.9247 167° South 276 318 25,000  Level Jacksonville Center
Tue 16:07:41 29.0853 -81.9136 172° South 271 312 25,000  Level Jacksonville Center
Tue 16:08:41 29.0142 -81.8978 169° South 266 306 25,000  Level Jacksonville Center
Tue 16:09:41 28.9600 -81.8864 170° South 261 300 25,000  Level Jacksonville Center
Tue 16:11:54 28.7958 -81.8536 170° South 254 292 25,000  Level Miami Center
Tue 16:12:54 28.7253 -81.8433 173° South 254 292 25,000  Level Miami Center
Tue 16:13:54 28.6525 -81.8306 171° South 259 298 25,000  Level Miami Center
Tue 16:14:54 28.5822 -81.8156 169° South 259 298 25,000  Level Miami Center
Tue 16:15:54 28.5119 -81.8008 170° South 259 298 25,000  Level Miami Center
Tue 16:16:54 28.4436 -81.7836 168° South 259 298 25,000 -200 Level Miami Center
Tue 16:17:54 28.3711 -81.7639 167° South 259 298 24,600 -496 Descending Miami Center
Tue 16:18:55 28.2886 -81.7439 168° South 276 318 24,000 -298 Descending Miami Center
Tue 16:19:55 28.2161 -81.7264 168° South 276 318 24,000  Level Miami Center
Tue 16:20:54 28.1436 -81.7069 167° South 276 318 24,000 -403 Level Miami Center
Tue 16:21:54 28.0692 -81.6894 168° South 276 318 23,200 -900 Descending Miami Center
Tue 16:22:54 27.9925 -81.6722 169° South 281 323 22,200 -1,000 Descending Miami Center
Tue 16:23:54 27.9181 -81.6525 167° South 281 323 21,200 -992 Descending Miami Center
Tue 16:24:55 27.8414 -81.6353 169° South 281 323 20,200 -992 Descending Miami Center
Tue 16:25:55 27.7689 -81.6183 168° South 276 318 19,200 -1,000 Descending Miami Center
Tue 16:26:55 27.7028 -81.6014 167° South 276 318 18,200 -958 Descending Miami Center
Tue 16:27:54 27.6261 -81.5842 169° South 276 318 17,300 -1,210 Descending Miami Center
Tue 16:28:54 27.5456 -81.5619 166° South 276 318 15,800 -1,785 Descending Miami Center
Tue 16:29:55 27.4750 -81.5453 168° South 276 318 13,700 -1,587 Descending Miami Center
Tue 16:30:55 27.4044 -81.5306 170° South 276 318 12,600 -900 Descending Miami Center
Tue 16:31:55 27.3403 -81.5139 167° South 265 305 11,900 -650 Descending Miami Center
Tue 16:32:55 27.2781 -81.4997 169° South 241 277 11,300 -600 Descending Miami Center
Tue 16:33:55 27.2181 -81.4856 168° South 236 272 10,700 -500 Descending Miami Center
Tue 16:34:55 27.1561 -81.4692 167° South 236 272 10,300 -450 Descending Miami Center
Tue 16:35:55 27.0981 -81.4575 170° South 231 266 9,800 -450 Descending Miami Center
Tue 16:36:55 27.0378 -81.4411 166° South 231 266 9,400 -400 Descending Miami Center
Tue 16:37:55 26.9778 -81.4319 172° South 226 260 9,000 -200 Descending Miami Center
Tue 16:38:55 26.9303 -81.4767 220° Southwest 205 236 9,000  Level Miami Center
Tue 16:39:54 26.8828 -81.5258 223° Southwest 221 254 9,000  Level Miami Center
Tue 16:40:55 26.8253 -81.5608 209° Southwest 243 280 9,000  Level Miami Center
Tue 16:41:55 26.7581 -81.5767 192° South 243 280 9,000 -400 Level Miami Center
Tue 16:42:55 26.6969 -81.5953 195° South 255 293 8,200 -800 Descending Miami Center
Tue 16:44:00 26.6246 -81.6140 193° South  Level FlightAware Approximate
Tue 16:51:00 26.1656 -81.7712 197° South  Level Estimated
Tue 16:52:00 26.1500 -81.7667 197° South  Level FlightAware Approximate
Tue 16:53:00 26.1524 -81.7756 197° South  Level Estimated
Tue 16:54:00 26.1524 -81.7756 197° South  Level Estimated
Tue 16:55:00 26.1524 -81.7756 197° South  Level Estimated
Tue 16:56:00 26.1524 -81.7756 197° South  Level Estimated
Tue 16:57:00 26.1524 -81.7756 197° South  Level Estimated
Tue 16:58:00 26.1524 -81.7756 197° South  Level Estimated
Tue 16:59:00 26.1524 -81.7756 197° South  Level Estimated
Tue 17:00:00 26.1524 -81.7756 197° South  Level Estimated
Tue 17:01:00 26.1524 -81.7756 197° South  Level Estimated

Login

Don't have an account? Register now (free) for customized features, flight alerts, and more!